createdAt,value
2022-11-14T00:00:08.110Z,99546.59
2022-11-14T00:00:21.212Z,99543.13
2022-11-14T00:00:34.100Z,99545.75
2022-11-14T00:00:47.068Z,99538.75
2022-11-14T00:00:59.901Z,99542.22
2022-11-14T00:01:13.263Z,99546.59
2022-11-14T00:01:45.968Z,99543.97
2022-11-14T00:01:58.767Z,99542.22
2022-11-14T00:02:11.633Z,99547.47
2022-11-14T00:02:44.579Z,99542.25
2022-11-14T00:03:17.305Z,99547.44
2022-11-14T00:03:30.594Z,99546.53
2022-11-14T00:03:43.425Z,99542.13
2022-11-14T00:03:56.236Z,99547.41
2022-11-14T00:04:09.068Z,99544.75
2022-11-14T00:04:26.797Z,99541.28
2022-11-14T00:04:54.711Z,99545.66
2022-11-14T00:05:08.987Z,99539.53
2022-11-14T00:05:21.921Z,99542.09
2022-11-14T00:05:39.162Z,99538.63
2022-11-14T00:05:52.156Z,99543.91
2022-11-14T00:06:06.706Z,99541.28
2022-11-14T00:06:19.923Z,99539.53
2022-11-14T00:06:32.736Z,99544.75
2022-11-14T00:06:45.700Z,99541.25
2022-11-14T00:06:58.581Z,99545.66
2022-11-14T00:07:11.509Z,99536.94
2022-11-14T00:07:24.585Z,99540.47
2022-11-14T00:07:37.889Z,99539.56
2022-11-14T00:07:50.782Z,99542.22
2022-11-14T00:08:03.639Z,99542.19
2022-11-14T00:08:21.040Z,99538.69
2022-11-14T00:08:33.892Z,99543.13
2022-11-14T00:08:46.694Z,99539.62
2022-11-14T00:08:59.497Z,99541.34
2022-11-14T00:09:13.201Z,99541.34
2022-11-14T00:09:27.003Z,99539.62
2022-11-14T00:09:59.745Z,99543.09
2022-11-14T00:10:32.515Z,99540.50
2022-11-14T00:11:05.368Z,99543.13
2022-11-14T00:11:18.321Z,99531.72
2022-11-14T00:12:10.162Z,99538.75
2022-11-14T00:13:01.875Z,99532.59
2022-11-14T00:13:15.280Z,99533.44
2022-11-14T00:13:28.149Z,99528.19
2022-11-14T00:13:41.005Z,99533.44
2022-11-14T00:13:53.847Z,99531.72
2022-11-14T00:14:06.691Z,99537.84
2022-11-14T00:14:19.501Z,99537.84
2022-11-14T00:14:51.731Z,99529.97
2022-11-14T00:15:04.891Z,99535.22
2022-11-14T00:15:17.868Z,99535.19
2022-11-14T00:15:30.763Z,99541.31
2022-11-14T00:15:43.951Z,99537.81
2022-11-14T00:15:56.819Z,99533.41
2022-11-14T00:16:09.622Z,99533.41
2022-11-14T00:16:22.538Z,99540.44
2022-11-14T00:16:35.363Z,99539.56
2022-11-14T00:17:09.053Z,99536.13
2022-11-14T00:17:22.447Z,99540.50
2022-11-14T00:17:35.271Z,99536.09
2022-11-14T00:17:48.087Z,99542.22
2022-11-14T00:18:01.791Z,99538.69
2022-11-14T00:18:14.613Z,99536.94
2022-11-14T00:18:27.729Z,99540.44
2022-11-14T00:18:41.578Z,99539.59
2022-11-14T00:18:54.500Z,99545.72
2022-11-14T00:19:27.223Z,99536.97
2022-11-14T00:19:40.344Z,99541.34
2022-11-14T00:19:53.143Z,99537.88
2022-11-14T00:20:06.966Z,99535.25
2022-11-14T00:20:19.796Z,99534.38
2022-11-14T00:20:32.795Z,99535.22
2022-11-14T00:21:05.568Z,99541.34
2022-11-14T00:21:18.403Z,99539.66
2022-11-14T00:21:31.246Z,99534.38
2022-11-14T00:21:44.734Z,99545.78
2022-11-14T00:21:57.648Z,99537.91
2022-11-14T00:22:10.493Z,99540.53
2022-11-14T00:22:23.350Z,99539.62
2022-11-14T00:22:36.174Z,99536.97
2022-11-14T00:22:48.970Z,99543.09
2022-11-14T00:23:01.791Z,99535.22
2022-11-14T00:23:14.583Z,99536.13
2022-11-14T00:23:27.406Z,99536.09
2022-11-14T00:23:40.230Z,99536.97
2022-11-14T00:23:53.124Z,99536.97
2022-11-14T00:24:06.064Z,99539.62
2022-11-14T00:24:19.041Z,99532.59
2022-11-14T00:24:31.909Z,99537.00
2022-11-14T00:24:44.769Z,99536.09
2022-11-14T00:24:57.581Z,99532.59
2022-11-14T00:25:10.407Z,99535.22
2022-11-14T00:25:44.466Z,99536.13
2022-11-14T00:25:57.295Z,99534.34
2022-11-14T00:26:10.116Z,99528.22
2022-11-14T00:26:23.423Z,99522.97
2022-11-14T00:26:36.233Z,99534.38
2022-11-14T00:26:49.066Z,99531.72
2022-11-14T00:27:01.883Z,99533.50
2022-11-14T00:27:34.998Z,99530.84
2022-11-14T00:27:47.909Z,99531.72
2022-11-14T00:28:00.809Z,99536.13
2022-11-14T00:28:13.810Z,99530.84
2022-11-14T00:28:26.789Z,99537.00
2022-11-14T00:28:40.298Z,99538.75
2022-11-14T00:28:54.325Z,99530.84
2022-11-14T00:29:07.150Z,99532.59
2022-11-14T00:29:20.199Z,99537.84
2022-11-14T00:29:33.215Z,99539.56
2022-11-14T00:29:46.259Z,99535.16
2022-11-14T00:29:59.103Z,99537.78
2022-11-14T00:30:11.998Z,99537.78
2022-11-14T00:30:25.079Z,99536.91
2022-11-14T00:30:57.827Z,99535.16
2022-11-14T00:31:11.191Z,99536.06
2022-11-14T00:31:24.106Z,99534.31
2022-11-14T00:31:37.372Z,99540.50
2022-11-14T00:31:50.255Z,99536.97
2022-11-14T00:32:03.072Z,99533.44
2022-11-14T00:32:35.802Z,99537.81
2022-11-14T00:32:48.618Z,99534.28
2022-11-14T00:33:01.487Z,99533.41
2022-11-14T00:33:19.762Z,99538.69
2022-11-14T00:33:33.264Z,99529.91
2022-11-14T00:33:46.081Z,99537.81
2022-11-14T00:33:59.121Z,99530.81
2022-11-14T00:34:12.971Z,99529.09
2022-11-14T00:34:25.788Z,99530.84
2022-11-14T00:34:39.052Z,99530.84
2022-11-14T00:34:52.335Z,99527.31
2022-11-14T00:35:25.078Z,99530.84
2022-11-14T00:35:57.799Z,99534.31
2022-11-14T00:36:10.586Z,99529.03
2022-11-14T00:36:23.623Z,99529.91
2022-11-14T00:36:36.728Z,99535.16
2022-11-14T00:36:49.562Z,99531.66
2022-11-14T00:37:02.393Z,99537.78
2022-11-14T00:37:15.315Z,99529.91
2022-11-14T00:37:28.215Z,99526.41
2022-11-14T00:37:41.033Z,99528.19
2022-11-14T00:37:54.006Z,99531.69
2022-11-14T00:38:06.958Z,99532.53
2022-11-14T00:38:39.699Z,99537.81
2022-11-14T00:38:54.749Z,99532.59
2022-11-14T00:39:27.841Z,99529.97
2022-11-14T00:39:41.149Z,99534.34
2022-11-14T00:39:53.968Z,99538.69
2022-11-14T00:40:45.139Z,99530.84
2022-11-14T00:40:58.119Z,99537.81
2022-11-14T00:41:12.861Z,99527.31
2022-11-14T00:41:25.666Z,99536.09
2022-11-14T00:41:38.573Z,99534.34
2022-11-14T00:41:51.631Z,99536.09
2022-11-14T00:42:04.564Z,99538.75
2022-11-14T00:42:17.478Z,99536.13
2022-11-14T00:42:30.339Z,99534.34
2022-11-14T00:42:43.226Z,99529.94
2022-11-14T00:42:56.355Z,99528.22
2022-11-14T00:43:29.128Z,99531.72
2022-11-14T00:43:41.957Z,99542.19
2022-11-14T00:43:54.773Z,99536.06
2022-11-14T00:44:07.875Z,99534.28
2022-11-14T00:44:20.756Z,99534.31
2022-11-14T00:44:33.921Z,99533.44
2022-11-14T00:44:46.794Z,99535.22
2022-11-14T00:45:00.024Z,99536.97
2022-11-14T00:45:12.859Z,99530.88
2022-11-14T00:45:25.705Z,99535.25
2022-11-14T00:46:17.558Z,99537.00
2022-11-14T00:46:48.803Z,99530.00
2022-11-14T00:47:02.055Z,99534.41
2022-11-14T00:47:34.793Z,99528.28
2022-11-14T00:47:47.718Z,99525.59
2022-11-14T00:48:03.360Z,99530.00
2022-11-14T00:48:16.430Z,99528.28
2022-11-14T00:48:29.508Z,99529.16
2022-11-14T00:48:42.843Z,99523.88
2022-11-14T00:48:57.278Z,99530.00
2022-11-14T00:49:10.278Z,99531.78
2022-11-14T00:49:23.081Z,99530.03
2022-11-14T00:49:36.091Z,99523.91
2022-11-14T00:49:48.977Z,99530.00
2022-11-14T00:50:01.825Z,99527.38
2022-11-14T00:50:16.411Z,99521.28
2022-11-14T00:50:29.341Z,99526.53
2022-11-14T00:50:42.290Z,99527.41
2022-11-14T00:50:55.125Z,99527.41
2022-11-14T00:51:08.143Z,99530.91
2022-11-14T00:51:41.341Z,99521.28
2022-11-14T00:51:54.163Z,99526.53
2022-11-14T00:52:07.008Z,99530.00
2022-11-14T00:52:19.826Z,99523.84
2022-11-14T00:52:32.671Z,99529.97
2022-11-14T00:52:45.502Z,99534.34
2022-11-14T00:52:58.807Z,99529.09
2022-11-14T00:53:13.126Z,99526.44
2022-11-14T00:53:26.104Z,99526.44
2022-11-14T00:53:38.891Z,99533.47
2022-11-14T00:54:11.657Z,99538.75
2022-11-14T00:54:44.383Z,99530.91
2022-11-14T00:55:17.226Z,99536.19
2022-11-14T00:55:30.051Z,99529.16
2022-11-14T00:55:43.106Z,99533.50
2022-11-14T00:55:56.136Z,99530.03
2022-11-14T00:56:29.347Z,99525.62
2022-11-14T00:56:42.192Z,99530.94
2022-11-14T00:56:55.664Z,99534.44
2022-11-14T00:57:08.499Z,99528.31
2022-11-14T00:57:21.687Z,99530.03
2022-11-14T00:57:34.518Z,99530.91
2022-11-14T00:57:47.340Z,99530.03
2022-11-14T00:58:01.108Z,99535.28
2022-11-14T00:58:13.993Z,99532.69
2022-11-14T00:58:27.290Z,99528.31
2022-11-14T00:58:40.382Z,99526.50
2022-11-14T00:58:53.218Z,99534.41
2022-11-14T00:59:06.056Z,99529.16
2022-11-14T00:59:18.880Z,99528.22
2022-11-14T00:59:31.721Z,99525.59
2022-11-14T00:59:44.962Z,99529.13
2022-11-14T00:59:57.799Z,99534.38
2022-11-14T01:00:13.256Z,99528.25
2022-11-14T01:00:26.151Z,99529.16
2022-11-14T01:00:39.205Z,99523.03
2022-11-14T01:00:52.374Z,99526.56
2022-11-14T01:01:05.341Z,99533.53
2022-11-14T01:01:21.193Z,99528.31
2022-11-14T01:01:36.925Z,99528.28
2022-11-14T01:01:52.902Z,99522.16
2022-11-14T01:02:08.223Z,99538.81
2022-11-14T01:02:21.800Z,99531.81
2022-11-14T01:02:56.949Z,99530.06
2022-11-14T01:03:09.814Z,99537.03
2022-11-14T01:03:22.837Z,99533.53
2022-11-14T01:03:37.054Z,99535.28
2022-11-14T01:03:50.401Z,99523.88
2022-11-14T01:04:25.065Z,99525.62
2022-11-14T01:04:57.894Z,99526.56
2022-11-14T01:05:10.896Z,99537.03
2022-11-14T01:05:24.774Z,99534.41
2022-11-14T01:05:57.514Z,99528.31
2022-11-14T01:06:11.406Z,99529.19
2022-11-14T01:06:44.150Z,99528.31
2022-11-14T01:06:57.057Z,99533.56
2022-11-14T01:07:09.861Z,99529.16
2022-11-14T01:07:22.723Z,99530.00
2022-11-14T01:07:35.589Z,99530.03
2022-11-14T01:08:08.339Z,99530.94
2022-11-14T01:08:21.200Z,99528.31
2022-11-14T01:08:54.065Z,99530.06
2022-11-14T01:09:07.362Z,99528.25
2022-11-14T01:09:20.405Z,99530.91
2022-11-14T01:09:33.478Z,99527.38
2022-11-14T01:09:46.405Z,99525.59
2022-11-14T01:09:59.238Z,99526.50
2022-11-14T01:10:12.040Z,99524.78
2022-11-14T01:10:24.913Z,99520.37
2022-11-14T01:10:57.640Z,99521.28
2022-11-14T01:11:30.413Z,99528.28
2022-11-14T01:11:43.315Z,99520.41
2022-11-14T01:11:56.107Z,99523.91
2022-11-14T01:12:08.942Z,99525.66
2022-11-14T01:12:21.851Z,99523.00
2022-11-14T01:12:34.881Z,99520.37
2022-11-14T01:12:47.714Z,99529.16
2022-11-14T01:13:00.938Z,99519.50
2022-11-14T01:13:13.838Z,99516.88
2022-11-14T01:13:26.977Z,99523.88
2022-11-14T01:13:39.863Z,99527.41
2022-11-14T01:14:31.118Z,99522.16
2022-11-14T01:14:43.979Z,99521.28
2022-11-14T01:14:56.872Z,99516.91
2022-11-14T01:15:09.920Z,99516.00
2022-11-14T01:15:22.798Z,99521.25
2022-11-14T01:15:42.333Z,99520.41
2022-11-14T01:15:55.373Z,99519.50
2022-11-14T01:16:09.460Z,99516.88
2022-11-14T01:16:22.334Z,99516.88
2022-11-14T01:16:55.078Z,99519.50
2022-11-14T01:17:08.000Z,99515.13
2022-11-14T01:17:37.214Z,99524.75
2022-11-14T01:17:50.124Z,99525.62
2022-11-14T01:18:03.171Z,99513.34
2022-11-14T01:18:17.828Z,99519.50
2022-11-14T01:18:31.485Z,99516.88
2022-11-14T01:18:44.619Z,99518.59
2022-11-14T01:18:57.553Z,99512.50
2022-11-14T01:19:11.256Z,99516.88
2022-11-14T01:19:24.083Z,99519.53
2022-11-14T01:19:56.863Z,99520.37
2022-11-14T01:20:10.314Z,99518.56
2022-11-14T01:20:43.653Z,99524.75
2022-11-14T01:21:16.937Z,99513.37
2022-11-14T01:21:29.941Z,99520.44
2022-11-14T01:21:42.895Z,99511.66
2022-11-14T01:21:55.693Z,99514.28
2022-11-14T01:22:08.541Z,99516.03
2022-11-14T01:22:21.397Z,99513.41
2022-11-14T01:22:34.253Z,99523.06
2022-11-14T01:22:47.085Z,99516.91
2022-11-14T01:22:59.943Z,99515.16
2022-11-14T01:23:13.383Z,99515.16
2022-11-14T01:23:26.657Z,99511.66
2022-11-14T01:24:18.433Z,99511.63
2022-11-14T01:24:33.236Z,99511.63
2022-11-14T01:25:06.868Z,99514.28
2022-11-14T01:25:40.360Z,99512.53
2022-11-14T01:25:53.191Z,99510.78
2022-11-14T01:26:07.904Z,99513.41
2022-11-14T01:26:21.180Z,99514.31
2022-11-14T01:26:34.247Z,99514.31
2022-11-14T01:27:06.998Z,99516.97
2022-11-14T01:27:19.802Z,99518.69
2022-11-14T01:27:32.723Z,99515.19
2022-11-14T01:27:45.585Z,99510.81
2022-11-14T01:27:58.481Z,99515.19
2022-11-14T01:28:16.379Z,99515.19
2022-11-14T01:28:29.451Z,99509.94
2022-11-14T01:28:42.461Z,99507.34
2022-11-14T01:28:55.317Z,99511.72
2022-11-14T01:29:08.209Z,99507.34
2022-11-14T01:29:21.065Z,99511.75
2022-11-14T01:29:33.874Z,99511.75
2022-11-14T01:29:46.688Z,99509.09
2022-11-14T01:29:59.585Z,99513.44
2022-11-14T01:30:13.074Z,99505.56
2022-11-14T01:30:25.957Z,99505.56
2022-11-14T01:30:38.895Z,99512.59
2022-11-14T01:31:32.770Z,99516.09
2022-11-14T01:31:45.607Z,99507.34
2022-11-14T01:31:58.726Z,99510.81
2022-11-14T01:32:11.553Z,99513.47
2022-11-14T01:32:42.925Z,99508.16
2022-11-14T01:32:55.747Z,99511.69
2022-11-14T01:33:08.673Z,99506.37
2022-11-14T01:33:21.663Z,99502.88
2022-11-14T01:33:54.539Z,99499.38
2022-11-14T01:34:07.499Z,99503.78
2022-11-14T01:34:40.261Z,99502.88
2022-11-14T01:34:53.082Z,99509.06
2022-11-14T01:35:06.153Z,99505.53
2022-11-14T01:35:19.000Z,99506.41
2022-11-14T01:35:32.725Z,99505.53
2022-11-14T01:35:45.596Z,99506.41
2022-11-14T01:35:59.999Z,99509.88
2022-11-14T01:36:12.801Z,99507.28
2022-11-14T01:36:26.075Z,99502.91
2022-11-14T01:36:38.898Z,99505.53
2022-11-14T01:36:52.250Z,99502.88
2022-11-14T01:37:05.272Z,99508.16
2022-11-14T01:37:18.515Z,99500.25
2022-11-14T01:37:52.116Z,99510.75
2022-11-14T01:38:05.142Z,99510.75
2022-11-14T01:38:58.647Z,99506.37
2022-11-14T01:39:11.940Z,99511.66
2022-11-14T01:39:26.566Z,99505.53
2022-11-14T01:39:39.390Z,99509.88
2022-11-14T01:39:52.236Z,99514.25
2022-11-14T01:40:06.401Z,99512.53
2022-11-14T01:40:19.219Z,99507.25
2022-11-14T01:40:32.323Z,99507.28
2022-11-14T01:40:45.400Z,99508.16
2022-11-14T01:40:58.203Z,99502.00
2022-11-14T01:41:13.367Z,99513.44
2022-11-14T01:41:26.849Z,99514.31
2022-11-14T01:41:39.664Z,99507.28
2022-11-14T01:41:52.544Z,99509.91
2022-11-14T01:42:05.412Z,99504.66
2022-11-14T01:42:20.118Z,99512.56
2022-11-14T01:42:34.819Z,99507.31
2022-11-14T01:43:25.094Z,99508.16
2022-11-14T01:43:38.653Z,99507.25
2022-11-14T01:43:51.512Z,99511.66
2022-11-14T01:44:05.231Z,99505.56
2022-11-14T01:44:49.160Z,99509.97
2022-11-14T01:45:01.963Z,99497.72
2022-11-14T01:45:52.316Z,99497.72
2022-11-14T01:46:33.521Z,99510.84
2022-11-14T01:46:47.429Z,99507.34
2022-11-14T01:47:21.779Z,99500.31
2022-11-14T01:47:54.468Z,99503.84
2022-11-14T01:48:30.309Z,99502.09
2022-11-14T01:48:45.256Z,99501.19
2022-11-14T01:49:02.681Z,99508.25
2022-11-14T01:49:26.718Z,99502.09
2022-11-14T01:49:41.866Z,99500.34
2022-11-14T01:49:56.587Z,99498.59
2022-11-14T01:50:30.727Z,99499.47
2022-11-14T01:50:43.582Z,99501.22
2022-11-14T01:50:59.930Z,99495.94
2022-11-14T01:51:42.538Z,99506.47
2022-11-14T01:52:02.831Z,99497.69
2022-11-14T01:52:22.450Z,99504.72
2022-11-14T01:52:36.293Z,99502.09
2022-11-14T01:52:49.363Z,99502.06
2022-11-14T01:53:02.188Z,99502.91
2022-11-14T01:53:55.297Z,99496.78
2022-11-14T01:54:18.850Z,99499.44
2022-11-14T01:54:37.234Z,99496.78
2022-11-14T01:54:52.496Z,99498.53
2022-11-14T01:55:07.959Z,99496.78
2022-11-14T01:55:40.685Z,99497.63
2022-11-14T01:55:54.762Z,99499.38
2022-11-14T01:56:08.276Z,99496.78
2022-11-14T01:56:28.328Z,99496.75
2022-11-14T01:57:02.053Z,99493.28
2022-11-14T01:57:38.825Z,99488.00
2022-11-14T01:57:51.899Z,99497.72
2022-11-14T01:58:24.843Z,99496.81
2022-11-14T01:59:01.634Z,99493.34
2022-11-14T01:59:36.576Z,99495.94
2022-11-14T01:59:52.556Z,99490.69
2022-11-14T02:00:08.416Z,99493.31
2022-11-14T02:00:21.655Z,99494.22
2022-11-14T02:00:55.033Z,99488.94
2022-11-14T02:01:07.929Z,99488.06
2022-11-14T02:01:21.145Z,99489.81
2022-11-14T02:01:51.746Z,99491.56
2022-11-14T02:02:25.615Z,99489.84
2022-11-14T02:02:58.794Z,99490.69
2022-11-14T02:03:15.149Z,99489.78
2022-11-14T02:03:28.163Z,99488.91
2022-11-14T02:03:41.848Z,99496.78
2022-11-14T02:03:54.681Z,99491.56
2022-11-14T02:04:08.855Z,99492.41
2022-11-14T02:04:32.740Z,99491.56
2022-11-14T02:04:47.615Z,99493.34
2022-11-14T02:05:08.234Z,99486.31
2022-11-14T02:05:41.640Z,99485.41
2022-11-14T02:05:54.481Z,99485.41
2022-11-14T02:06:08.076Z,99488.03
2022-11-14T02:06:22.662Z,99488.91
2022-11-14T02:06:35.723Z,99491.56
2022-11-14T02:07:10.708Z,99488.94
2022-11-14T02:07:24.672Z,99484.56
2022-11-14T02:08:34.586Z,99488.94
2022-11-14T02:09:07.592Z,99487.25
2022-11-14T02:09:20.624Z,99483.75
2022-11-14T02:09:36.572Z,99489.91
2022-11-14T02:09:49.695Z,99485.53
2022-11-14T02:10:06.636Z,99486.38
2022-11-14T02:10:40.119Z,99482.87
2022-11-14T02:11:13.029Z,99490.78
2022-11-14T02:11:46.178Z,99483.84
2022-11-14T02:11:59.220Z,99488.25
2022-11-14T02:12:50.972Z,99490.87
2022-11-14T02:13:04.166Z,99488.22
2022-11-14T02:13:17.147Z,99482.06
2022-11-14T02:13:30.195Z,99490.78
2022-11-14T02:13:43.389Z,99483.75
2022-11-14T02:14:16.183Z,99489.91
2022-11-14T02:15:08.241Z,99490.78
2022-11-14T02:15:21.310Z,99487.25
2022-11-14T02:15:34.836Z,99483.75
2022-11-14T02:15:47.704Z,99492.50
2022-11-14T02:16:00.523Z,99492.50
2022-11-14T02:16:13.387Z,99490.75
2022-11-14T02:17:07.288Z,99490.75
2022-11-14T02:17:34.489Z,99485.47
2022-11-14T02:17:47.529Z,99489.00
2022-11-14T02:18:01.272Z,99486.38
2022-11-14T02:18:34.200Z,99480.22
2022-11-14T02:19:07.133Z,99489.00
2022-11-14T02:19:19.976Z,99485.50
2022-11-14T02:20:11.549Z,99484.66
2022-11-14T02:20:33.191Z,99489.87
2022-11-14T02:21:16.601Z,99491.63
2022-11-14T02:21:29.737Z,99482.00
2022-11-14T02:21:42.536Z,99478.50
2022-11-14T02:21:55.374Z,99489.00
2022-11-14T02:22:08.322Z,99488.09
2022-11-14T02:22:41.736Z,99486.41
2022-11-14T02:22:54.870Z,99483.75
2022-11-14T02:23:07.707Z,99483.78
2022-11-14T02:23:30.458Z,99488.16
2022-11-14T02:23:43.637Z,99488.16
2022-11-14T02:23:56.620Z,99486.38
2022-11-14T02:24:13.051Z,99488.09
2022-11-14T02:24:25.901Z,99481.97
2022-11-14T02:24:38.992Z,99493.34
2022-11-14T02:24:52.013Z,99492.47
2022-11-14T02:25:43.221Z,99483.75
2022-11-14T02:25:56.309Z,99491.63
2022-11-14T02:26:09.416Z,99484.59
2022-11-14T02:26:22.695Z,99479.38
2022-11-14T02:26:55.606Z,99483.72
2022-11-14T02:27:08.740Z,99478.53
2022-11-14T02:27:21.768Z,99490.78
2022-11-14T02:27:54.500Z,99495.12
2022-11-14T02:28:07.830Z,99493.41
2022-11-14T02:28:21.916Z,99483.72
2022-11-14T02:28:34.757Z,99494.22
2022-11-14T02:29:07.402Z,99488.06
2022-11-14T02:29:40.433Z,99492.47
2022-11-14T02:29:54.448Z,99495.97
2022-11-14T02:30:09.303Z,99486.31
2022-11-14T02:30:23.314Z,99490.72
2022-11-14T02:30:36.233Z,99486.38
2022-11-14T02:30:49.103Z,99486.38
2022-11-14T02:31:01.932Z,99487.25
2022-11-14T02:31:15.135Z,99495.16
2022-11-14T02:31:27.983Z,99489.03
2022-11-14T02:32:00.771Z,99492.53
2022-11-14T02:32:13.621Z,99488.16
2022-11-14T02:33:19.164Z,99489.03
2022-11-14T02:33:32.236Z,99488.94
2022-11-14T02:34:04.959Z,99487.25
2022-11-14T02:34:20.246Z,99488.09
2022-11-14T02:34:33.580Z,99481.09
2022-11-14T02:34:46.391Z,99485.47
2022-11-14T02:35:20.112Z,99485.47
2022-11-14T02:35:32.931Z,99481.97
2022-11-14T02:35:45.800Z,99488.13
2022-11-14T02:35:58.938Z,99487.25
2022-11-14T02:36:11.779Z,99491.63
2022-11-14T02:36:24.675Z,99483.72
2022-11-14T02:36:37.491Z,99486.34
2022-11-14T02:36:50.424Z,99482.81
2022-11-14T02:37:03.217Z,99488.06
2022-11-14T02:37:16.327Z,99484.59
2022-11-14T02:38:07.613Z,99478.44
2022-11-14T02:38:20.564Z,99480.22
2022-11-14T02:38:33.619Z,99480.22
2022-11-14T02:39:06.365Z,99483.75
2022-11-14T02:39:19.189Z,99475.84
2022-11-14T02:39:32.156Z,99475.84
2022-11-14T02:40:07.579Z,99482.87
2022-11-14T02:40:20.467Z,99482.91
2022-11-14T02:40:33.335Z,99481.13
2022-11-14T02:40:46.628Z,99481.13
2022-11-14T02:41:00.345Z,99486.41
2022-11-14T02:41:13.159Z,99484.66
2022-11-14T02:41:26.062Z,99485.50
2022-11-14T02:41:38.865Z,99490.75
2022-11-14T02:41:52.139Z,99480.25
2022-11-14T02:42:04.981Z,99482.91
2022-11-14T02:42:17.792Z,99489.03
2022-11-14T02:42:30.725Z,99483.78
2022-11-14T02:42:43.775Z,99486.41
2022-11-14T02:42:56.915Z,99483.78
2022-11-14T02:43:09.724Z,99482.91
2022-11-14T02:43:22.548Z,99482.00
2022-11-14T02:43:35.411Z,99487.28
2022-11-14T02:43:48.209Z,99483.75
2022-11-14T02:44:20.957Z,99490.78
2022-11-14T02:44:33.962Z,99488.16
2022-11-14T02:44:46.760Z,99483.75
2022-11-14T02:44:59.579Z,99486.41
2022-11-14T02:45:12.888Z,99486.38
2022-11-14T02:45:45.671Z,99485.53
2022-11-14T02:46:18.403Z,99477.66
2022-11-14T02:46:31.406Z,99493.41
2022-11-14T02:47:04.178Z,99482.91
2022-11-14T02:47:36.905Z,99484.59
2022-11-14T02:47:49.750Z,99489.87
2022-11-14T02:48:02.575Z,99489.03
2022-11-14T02:48:15.843Z,99479.41
2022-11-14T02:48:29.542Z,99484.66
2022-11-14T02:48:42.582Z,99485.53
2022-11-14T02:48:55.405Z,99482.00
2022-11-14T02:49:08.223Z,99478.53
2022-11-14T02:49:21.159Z,99480.28
2022-11-14T02:49:33.984Z,99482.91
2022-11-14T02:49:46.875Z,99485.53
2022-11-14T02:49:59.765Z,99487.28
2022-11-14T02:50:12.838Z,99489.00
2022-11-14T02:50:25.654Z,99486.38
2022-11-14T02:50:58.383Z,99481.13
2022-11-14T02:51:11.551Z,99482.87
2022-11-14T02:51:24.549Z,99485.50
2022-11-14T02:51:37.920Z,99482.87
2022-11-14T02:51:50.739Z,99490.78
2022-11-14T02:52:03.606Z,99484.59
2022-11-14T02:52:16.697Z,99474.13
2022-11-14T02:52:29.554Z,99482.87
2022-11-14T02:52:42.484Z,99488.09
2022-11-14T02:52:55.765Z,99486.34
2022-11-14T02:53:08.642Z,99489.81
2022-11-14T02:53:21.473Z,99488.09
2022-11-14T02:53:34.356Z,99481.94
2022-11-14T02:53:47.241Z,99487.22
2022-11-14T02:54:00.086Z,99488.94
2022-11-14T02:54:13.467Z,99487.19
2022-11-14T02:54:26.350Z,99489.84
2022-11-14T02:54:39.338Z,99486.31
2022-11-14T02:54:54.644Z,99488.97
2022-11-14T02:55:08.141Z,99488.06
2022-11-14T02:55:21.542Z,99480.22
2022-11-14T02:55:34.355Z,99483.72
2022-11-14T02:55:47.179Z,99480.19
2022-11-14T02:56:01.360Z,99480.19
2022-11-14T02:56:34.202Z,99482.81
2022-11-14T02:57:06.953Z,99488.06
2022-11-14T02:57:19.755Z,99485.47
2022-11-14T02:57:32.938Z,99479.34
2022-11-14T02:58:06.016Z,99479.31
2022-11-14T02:58:18.939Z,99481.94
2022-11-14T02:58:32.144Z,99484.56
2022-11-14T02:58:45.414Z,99478.44
2022-11-14T02:58:58.565Z,99486.31
2022-11-14T02:59:11.367Z,99479.31
2022-11-14T02:59:24.231Z,99488.06
2022-11-14T02:59:37.108Z,99481.94
2022-11-14T02:59:49.939Z,99486.31
2022-11-14T03:00:03.804Z,99483.66
2022-11-14T03:00:38.578Z,99481.03
2022-11-14T03:01:19.808Z,99482.81
2022-11-14T03:02:03.873Z,99478.44
2022-11-14T03:02:36.577Z,99481.09
2022-11-14T03:03:09.307Z,99482.81
2022-11-14T03:03:22.177Z,99483.69
2022-11-14T03:03:55.496Z,99476.69
2022-11-14T03:04:08.331Z,99479.31
2022-11-14T03:04:21.178Z,99477.56
2022-11-14T03:04:34.041Z,99488.06
2022-11-14T03:04:46.884Z,99474.03
2022-11-14T03:04:59.912Z,99481.06
2022-11-14T03:05:13.116Z,99477.56
2022-11-14T03:05:26.064Z,99477.56
2022-11-14T03:05:38.866Z,99481.03
2022-11-14T03:05:53.443Z,99485.44
2022-11-14T03:06:06.879Z,99475.78
2022-11-14T03:06:19.695Z,99479.31
2022-11-14T03:06:32.523Z,99482.81
2022-11-14T03:06:45.426Z,99474.94
2022-11-14T03:06:58.339Z,99480.22
2022-11-14T03:07:11.675Z,99480.22
2022-11-14T03:07:24.615Z,99477.59
2022-11-14T03:07:37.570Z,99480.22
2022-11-14T03:07:53.886Z,99477.59
2022-11-14T03:08:06.755Z,99485.44
2022-11-14T03:08:20.062Z,99481.94
2022-11-14T03:09:14.063Z,99477.56
2022-11-14T03:09:26.864Z,99477.56
2022-11-14T03:09:39.675Z,99478.47
2022-11-14T03:09:52.621Z,99474.94
2022-11-14T03:10:06.036Z,99478.44
2022-11-14T03:10:19.331Z,99475.81
2022-11-14T03:10:32.155Z,99473.16
2022-11-14T03:11:06.350Z,99475.81
2022-11-14T03:11:19.229Z,99473.19
2022-11-14T03:11:32.048Z,99472.34
2022-11-14T03:11:44.924Z,99474.97
2022-11-14T03:11:57.728Z,99474.94
2022-11-14T03:12:10.518Z,99477.59
2022-11-14T03:12:23.762Z,99474.97
2022-11-14T03:12:36.985Z,99474.06
2022-11-14T03:12:55.824Z,99477.56
2022-11-14T03:13:08.759Z,99474.06
2022-11-14T03:13:21.628Z,99471.44
2022-11-14T03:13:34.531Z,99479.31
2022-11-14T03:13:48.380Z,99485.44
2022-11-14T03:14:01.393Z,99475.78
2022-11-14T03:14:14.238Z,99476.69
2022-11-14T03:14:27.153Z,99471.41
2022-11-14T03:14:40.120Z,99475.81
2022-11-14T03:14:53.175Z,99475.78
2022-11-14T03:15:06.437Z,99476.63
2022-11-14T03:15:19.287Z,99474.91
2022-11-14T03:15:32.115Z,99474.91
2022-11-14T03:15:44.947Z,99478.41
2022-11-14T03:15:58.344Z,99475.78
2022-11-14T03:16:12.161Z,99481.06
2022-11-14T03:16:25.030Z,99479.31
2022-11-14T03:16:37.921Z,99474.97
2022-11-14T03:16:50.843Z,99478.44
2022-11-14T03:17:03.764Z,99474.97
2022-11-14T03:17:16.659Z,99475.84
2022-11-14T03:17:32.157Z,99473.19
2022-11-14T03:17:44.999Z,99479.31
2022-11-14T03:17:57.818Z,99477.59
2022-11-14T03:18:10.781Z,99474.06
2022-11-14T03:18:24.019Z,99475.84
2022-11-14T03:18:36.881Z,99472.34
2022-11-14T03:18:49.939Z,99471.44
2022-11-14T03:19:02.860Z,99470.59
2022-11-14T03:19:15.813Z,99473.16
2022-11-14T03:19:28.698Z,99477.56
2022-11-14T03:19:41.589Z,99469.72
2022-11-14T03:19:54.487Z,99474.13
2022-11-14T03:20:07.983Z,99472.41
2022-11-14T03:20:21.782Z,99467.13
2022-11-14T03:20:34.960Z,99475.87
2022-11-14T03:20:47.873Z,99475.91
2022-11-14T03:21:21.491Z,99474.13
2022-11-14T03:21:34.302Z,99470.62
2022-11-14T03:21:47.307Z,99469.75
2022-11-14T03:22:20.048Z,99461.88
2022-11-14T03:22:32.827Z,99473.25
2022-11-14T03:22:45.712Z,99469.75
2022-11-14T03:22:58.590Z,99469.75
2022-11-14T03:23:11.377Z,99474.16
2022-11-14T03:23:24.174Z,99468.00
2022-11-14T03:23:37.199Z,99468.88
2022-11-14T03:23:50.196Z,99469.75
2022-11-14T03:24:24.548Z,99474.16
2022-11-14T03:24:37.434Z,99474.13
2022-11-14T03:24:50.254Z,99471.50
2022-11-14T03:25:03.363Z,99473.22
2022-11-14T03:25:16.265Z,99469.72
2022-11-14T03:25:32.096Z,99471.47
2022-11-14T03:25:44.922Z,99476.72
2022-11-14T03:26:01.055Z,99474.09
2022-11-14T03:26:14.236Z,99464.47